createdAt,value
2022-10-14T00:00:56.167Z,15.82
2022-10-14T00:03:24.865Z,14.95
2022-10-14T00:05:52.822Z,13.73
2022-10-14T00:08:20.614Z,17.05
2022-10-14T00:10:48.602Z,16.10
2022-10-14T00:13:16.586Z,14.20
2022-10-14T00:15:45.946Z,15.90
2022-10-14T00:18:14.011Z,14.55
2022-10-14T00:20:41.974Z,15.85
2022-10-14T00:23:10.396Z,15.85
2022-10-14T00:25:39.889Z,15.15
2022-10-14T00:28:07.793Z,17.80
2022-10-14T00:30:35.818Z,16.80
2022-10-14T00:33:05.769Z,16.40
2022-10-14T00:35:33.640Z,16.88
2022-10-14T00:38:01.575Z,22.77
2022-10-14T00:40:29.515Z,18.67
2022-10-14T00:42:57.438Z,21.80
2022-10-14T00:45:26.226Z,17.60
2022-10-14T00:47:55.805Z,23.92
2022-10-14T00:50:25.619Z,21.13
2022-10-14T00:52:53.491Z,20.55
2022-10-14T00:55:21.506Z,20.20
2022-10-14T00:57:49.379Z,24.83
2022-10-14T01:00:19.863Z,24.88
2022-10-14T01:02:49.737Z,22.60
2022-10-14T01:05:21.242Z,20.92
2022-10-14T01:08:04.664Z,22.48
2022-10-14T01:10:41.145Z,23.63
2022-10-14T01:13:19.241Z,21.77
2022-10-14T01:15:53.316Z,26.17
2022-10-14T01:18:44.371Z,19.80
2022-10-14T01:21:18.978Z,17.70
2022-10-14T01:24:26.191Z,19.48
2022-10-14T01:27:20.028Z,17.58
2022-10-14T01:30:11.321Z,18.98
2022-10-14T01:32:48.695Z,23.90
2022-10-14T01:35:24.735Z,17.27
2022-10-14T01:37:56.303Z,20.98
2022-10-14T01:40:28.669Z,19.83
2022-10-14T01:42:58.640Z,17.75
2022-10-14T01:45:29.142Z,17.55
2022-10-14T01:47:58.400Z,17.90
2022-10-14T01:50:30.451Z,15.65
2022-10-14T01:53:05.398Z,18.83
2022-10-14T01:55:38.566Z,21.38
2022-10-14T01:58:09.064Z,16.98
2022-10-14T02:00:38.846Z,19.98
2022-10-14T02:03:07.426Z,15.23
2022-10-14T02:05:38.794Z,17.55
2022-10-14T02:08:12.106Z,20.80
2022-10-14T02:10:52.912Z,17.92
2022-10-14T02:13:31.431Z,17.93
2022-10-14T02:16:08.082Z,16.60
2022-10-14T02:18:41.216Z,18.73
2022-10-14T02:21:17.146Z,17.38
2022-10-14T02:23:47.834Z,22.10
2022-10-14T02:26:17.015Z,17.60
2022-10-14T02:28:45.463Z,19.73
2022-10-14T02:31:16.791Z,17.33
2022-10-14T02:33:50.650Z,17.58
2022-10-14T02:36:21.593Z,19.73
2022-10-14T02:38:49.968Z,23.20
2022-10-14T02:41:20.583Z,16.92
2022-10-14T02:43:48.451Z,20.73
2022-10-14T02:46:20.983Z,18.42
2022-10-14T02:48:48.967Z,18.85
2022-10-14T02:51:17.218Z,18.15
2022-10-14T02:53:45.175Z,22.25
2022-10-14T02:56:14.095Z,17.85
2022-10-14T02:58:41.967Z,20.70
2022-10-14T03:01:10.011Z,16.80
2022-10-14T03:03:39.414Z,18.08
2022-10-14T03:06:08.159Z,18.05
2022-10-14T03:08:36.277Z,20.55
2022-10-14T03:11:06.454Z,18.65
2022-10-14T03:13:34.356Z,19.25
2022-10-14T03:16:02.375Z,22.70
2022-10-14T03:18:31.363Z,25.38
2022-10-14T03:21:06.466Z,22.83
2022-10-14T03:23:39.070Z,17.55
2022-10-14T03:26:10.660Z,18.63
2022-10-14T03:28:43.840Z,17.42
2022-10-14T03:31:24.694Z,18.25
2022-10-14T03:34:11.460Z,17.33
2022-10-14T03:36:43.017Z,22.65
2022-10-14T03:39:11.891Z,17.85
2022-10-14T03:41:45.588Z,21.48
2022-10-14T03:44:17.098Z,21.00
2022-10-14T03:47:04.881Z,22.70
2022-10-14T03:49:34.311Z,20.38
2022-10-14T03:52:11.318Z,18.42
2022-10-14T03:54:40.914Z,22.25
2022-10-14T03:57:09.064Z,20.60
2022-10-14T03:59:43.473Z,23.75
2022-10-14T04:02:12.096Z,21.63
2022-10-14T04:04:42.135Z,22.98
2022-10-14T04:07:11.822Z,23.65
2022-10-14T04:09:41.614Z,24.50
2022-10-14T04:12:12.753Z,26.20
2022-10-14T04:14:51.593Z,19.65
2022-10-14T04:17:19.493Z,20.92
2022-10-14T04:19:47.325Z,21.15
2022-10-14T04:22:19.733Z,25.10
2022-10-14T04:24:52.462Z,22.80
2022-10-14T04:27:21.579Z,22.80
2022-10-14T04:29:58.312Z,23.38
2022-10-14T04:32:30.561Z,26.38
2022-10-14T04:34:58.442Z,21.67
2022-10-14T04:37:31.392Z,21.20
2022-10-14T04:40:03.676Z,22.55
2022-10-14T04:42:32.816Z,25.27
2022-10-14T04:45:06.073Z,20.65
2022-10-14T04:47:48.737Z,23.17
2022-10-14T04:50:20.287Z,20.23
2022-10-14T04:53:13.091Z,24.38
2022-10-14T04:55:51.698Z,24.08
2022-10-14T04:58:20.079Z,25.13
2022-10-14T05:00:49.145Z,26.80
2022-10-14T05:03:33.656Z,22.73
2022-10-14T05:06:01.660Z,23.83
2022-10-14T05:08:32.365Z,27.83
2022-10-14T05:11:02.727Z,23.45
2022-10-14T05:13:42.949Z,25.58
2022-10-14T05:16:10.936Z,23.27
2022-10-14T05:18:39.813Z,24.67
2022-10-14T05:21:12.468Z,21.95
2022-10-14T05:24:05.065Z,23.13
2022-10-14T05:26:34.775Z,28.27
2022-10-14T05:29:07.069Z,20.50
2022-10-14T05:31:35.006Z,24.33
2022-10-14T05:34:10.838Z,26.70
2022-10-14T05:36:39.547Z,25.25
2022-10-14T05:39:11.495Z,26.17
2022-10-14T05:41:40.485Z,30.27
2022-10-14T05:44:08.925Z,28.77
2022-10-14T05:46:36.930Z,25.95
2022-10-14T05:49:06.058Z,29.08
2022-10-14T05:51:36.756Z,29.60
2022-10-14T05:54:13.687Z,29.38
2022-10-14T05:56:43.865Z,35.25
2022-10-14T05:59:12.112Z,31.52
2022-10-14T06:01:40.866Z,38.88
2022-10-14T06:04:08.788Z,38.35
2022-10-14T06:06:37.042Z,32.03
2022-10-14T06:09:08.942Z,34.80
2022-10-14T06:11:40.863Z,33.20
2022-10-14T06:14:08.831Z,39.83
2022-10-14T06:16:36.834Z,35.63
2022-10-14T06:19:07.474Z,33.83
2022-10-14T06:21:35.521Z,35.13
2022-10-14T06:24:03.438Z,31.45
2022-10-14T06:26:31.239Z,33.28
2022-10-14T06:29:00.477Z,33.97
2022-10-14T06:31:32.125Z,34.92
2022-10-14T06:34:00.502Z,42.17
2022-10-14T06:36:28.330Z,35.03
2022-10-14T06:38:56.166Z,30.13
2022-10-14T06:41:24.638Z,34.38
2022-10-14T06:43:52.510Z,33.45
2022-10-14T06:46:21.660Z,33.35
2022-10-14T06:48:50.464Z,37.33
2022-10-14T06:51:18.901Z,37.05
2022-10-14T06:53:46.787Z,36.10
2022-10-14T06:56:14.653Z,35.78
2022-10-14T06:58:42.579Z,33.20
2022-10-14T07:01:10.598Z,35.33
2022-10-14T07:03:40.044Z,30.92
2022-10-14T07:06:09.238Z,36.75
2022-10-14T07:08:37.354Z,39.05
2022-10-14T07:11:05.665Z,35.25
2022-10-14T07:13:34.177Z,36.72
2022-10-14T07:16:02.232Z,40.97
2022-10-14T07:18:30.062Z,35.80
2022-10-14T07:21:03.016Z,38.22
2022-10-14T07:23:30.945Z,36.58
2022-10-14T07:25:59.195Z,34.15
2022-10-14T07:28:27.194Z,34.03
2022-10-14T07:30:59.991Z,43.67
2022-10-14T07:33:27.931Z,35.40
2022-10-14T07:35:56.121Z,35.05
2022-10-14T07:38:25.351Z,37.90
2022-10-14T07:41:00.715Z,39.80
2022-10-14T07:43:28.798Z,35.50
2022-10-14T07:46:00.957Z,42.08
2022-10-14T07:48:32.664Z,38.17
2022-10-14T07:51:07.200Z,37.97
2022-10-14T07:53:37.098Z,37.25
2022-10-14T07:56:05.393Z,32.60
2022-10-14T07:58:33.244Z,39.53
2022-10-14T08:01:01.156Z,34.70
2022-10-14T08:03:29.053Z,39.65
2022-10-14T08:06:01.181Z,34.95
2022-10-14T08:08:29.483Z,38.75
2022-10-14T08:11:07.277Z,35.30
2022-10-14T08:13:35.552Z,39.15
2022-10-14T08:16:03.495Z,33.22
2022-10-14T08:18:31.345Z,37.83
2022-10-14T08:20:59.510Z,36.50
2022-10-14T08:23:27.445Z,30.55
2022-10-14T08:25:55.290Z,37.10
2022-10-14T08:28:24.518Z,38.28
2022-10-14T08:30:53.335Z,30.17
2022-10-14T08:33:21.494Z,38.85
2022-10-14T08:35:53.873Z,34.15
2022-10-14T08:38:25.148Z,32.17
2022-10-14T08:40:59.174Z,33.90
2022-10-14T08:43:32.294Z,34.67
2022-10-14T08:46:07.162Z,33.97
2022-10-14T08:48:35.432Z,43.92
2022-10-14T08:51:06.575Z,53.67
2022-10-14T08:53:36.860Z,43.88
2022-10-14T08:56:04.866Z,54.90
2022-10-14T08:58:35.956Z,35.22
2022-10-14T09:01:13.479Z,29.90
2022-10-14T09:03:43.244Z,29.55
2022-10-14T09:06:14.273Z,30.20
2022-10-14T09:08:45.375Z,27.15
2022-10-14T09:11:14.790Z,29.20
2022-10-14T09:13:46.092Z,28.02
2022-10-14T09:16:20.350Z,26.45
2022-10-14T09:18:53.815Z,29.45
2022-10-14T09:24:22.120Z,23.67
2022-10-14T09:26:52.286Z,25.52
2022-10-14T09:29:26.272Z,29.75
2022-10-14T09:31:56.485Z,25.30
2022-10-14T09:34:29.983Z,25.48
2022-10-14T09:37:00.149Z,24.75
2022-10-14T09:39:29.078Z,25.23
2022-10-14T09:41:58.913Z,25.77
2022-10-14T09:44:28.277Z,25.38
2022-10-14T09:46:58.277Z,26.75
2022-10-14T09:49:35.405Z,26.10
2022-10-14T09:52:03.308Z,22.13
2022-10-14T09:54:32.198Z,21.40
2022-10-14T09:57:03.960Z,28.38
2022-10-14T09:59:33.298Z,24.08
2022-10-14T10:02:04.023Z,23.00
2022-10-14T10:04:37.692Z,25.52
2022-10-14T10:07:11.121Z,25.08
2022-10-14T10:09:38.960Z,21.85
2022-10-14T10:12:23.972Z,22.75
2022-10-14T10:14:59.730Z,27.13
2022-10-14T10:17:28.307Z,26.85
2022-10-14T10:20:09.274Z,50.17
2022-10-14T10:22:39.150Z,29.25
2022-10-14T10:25:26.250Z,24.38
2022-10-14T10:27:55.238Z,31.73
2022-10-14T10:30:27.356Z,25.15
2022-10-14T10:33:04.693Z,29.63
2022-10-14T10:35:38.630Z,29.50
2022-10-14T10:38:14.747Z,29.58
2022-10-14T10:40:49.168Z,31.30
2022-10-14T10:43:45.449Z,32.90
2022-10-14T10:46:35.100Z,31.77
2022-10-14T10:49:10.293Z,33.33
2022-10-14T10:51:41.960Z,27.20
2022-10-14T10:54:17.280Z,28.48
2022-10-14T10:56:49.720Z,29.55
2022-10-14T10:59:33.411Z,26.50
2022-10-14T11:02:16.458Z,22.63
2022-10-14T11:04:46.878Z,25.05
2022-10-14T11:07:38.074Z,29.10
2022-10-14T11:10:31.230Z,23.73
2022-10-14T11:13:01.053Z,27.38
2022-10-14T11:15:38.523Z,30.25
2022-10-14T11:18:13.131Z,16.98
2022-10-14T11:20:47.787Z,25.85
2022-10-14T11:23:43.139Z,37.15
2022-10-14T11:26:20.351Z,25.33
2022-10-14T11:28:54.945Z,23.23
2022-10-14T11:31:31.897Z,18.77
2022-10-14T11:34:31.063Z,15.65
2022-10-14T11:37:05.053Z,8.45
2022-10-14T11:39:40.087Z,21.25
2022-10-14T11:47:20.855Z,12.02
2022-10-14T11:49:53.002Z,18.65
2022-10-14T11:52:26.031Z,11.63
2022-10-14T11:54:57.296Z,11.15
2022-10-14T11:57:29.987Z,11.80
2022-10-14T12:00:53.245Z,12.93
2022-10-14T12:03:24.952Z,18.00
2022-10-14T12:05:59.568Z,13.13
2022-10-14T12:08:34.695Z,11.50
2022-10-14T12:11:07.487Z,34.00
2022-10-14T12:13:41.582Z,10.63
2022-10-14T12:16:13.026Z,13.30
2022-10-14T12:18:42.155Z,11.18
2022-10-14T12:21:16.267Z,12.18
2022-10-14T12:23:47.112Z,11.50
2022-10-14T12:26:19.749Z,13.98
2022-10-14T12:28:48.444Z,17.50
2022-10-14T12:31:27.556Z,13.85
2022-10-14T12:34:18.932Z,14.63
2022-10-14T12:36:50.646Z,12.85
2022-10-14T12:39:33.547Z,11.65
2022-10-14T12:42:03.582Z,11.73
2022-10-14T12:44:36.573Z,14.93
2022-10-14T12:47:05.762Z,14.35
2022-10-14T12:49:35.064Z,13.65
2022-10-14T12:52:05.891Z,13.70
2022-10-14T12:54:34.498Z,18.67
2022-10-14T12:57:04.190Z,15.55
2022-10-14T12:59:33.398Z,13.77
2022-10-14T13:02:04.728Z,13.43
2022-10-14T13:04:33.286Z,14.63
2022-10-14T13:07:47.418Z,12.75
2022-10-14T13:10:52.513Z,16.42
2022-10-14T13:13:51.450Z,14.73
2022-10-14T13:17:12.020Z,14.13
2022-10-14T13:19:45.018Z,16.50
2022-10-14T13:22:39.967Z,16.20
2022-10-14T13:25:20.040Z,16.50
2022-10-14T13:27:58.398Z,11.40
2022-10-14T13:30:34.263Z,13.70
2022-10-14T13:33:08.511Z,13.38
2022-10-14T13:35:46.646Z,14.75
2022-10-14T13:38:17.171Z,11.38
2022-10-14T13:40:50.819Z,12.27
2022-10-14T13:43:21.031Z,12.40
2022-10-14T13:45:51.046Z,12.70
2022-10-14T13:48:21.732Z,14.45
2022-10-14T13:50:52.027Z,15.00
2022-10-14T13:53:23.047Z,15.43
2022-10-14T13:55:54.462Z,19.15
2022-10-14T13:58:24.121Z,14.57
2022-10-14T14:00:59.574Z,13.95
2022-10-14T14:03:30.807Z,17.27
2022-10-14T14:05:59.788Z,14.38
2022-10-14T14:08:46.773Z,16.30
2022-10-14T14:11:19.393Z,13.85
2022-10-14T14:14:00.209Z,17.42
2022-10-14T14:16:32.501Z,17.27
2022-10-14T14:19:08.448Z,15.40
2022-10-14T14:21:37.317Z,18.08
2022-10-14T14:24:16.533Z,16.73
2022-10-14T14:26:49.400Z,14.30
2022-10-14T14:29:21.538Z,15.65
2022-10-14T14:34:38.941Z,16.77
2022-10-14T14:39:59.175Z,18.50
2022-10-14T14:42:28.670Z,16.92
2022-10-14T14:45:00.922Z,17.85
2022-10-14T14:47:29.276Z,15.95
2022-10-14T14:50:18.264Z,16.90
2022-10-14T14:52:47.742Z,18.13
2022-10-14T14:55:39.923Z,16.88
2022-10-14T14:58:19.730Z,17.40
2022-10-14T15:00:48.154Z,16.67
2022-10-14T15:03:16.462Z,15.93
2022-10-14T15:05:50.908Z,17.67
2022-10-14T15:08:23.254Z,20.33
2022-10-14T15:10:55.258Z,17.73
2022-10-14T15:13:32.484Z,21.13
2022-10-14T15:16:00.741Z,20.30
2022-10-14T15:18:29.633Z,17.17
2022-10-14T15:21:14.822Z,20.10
2022-10-14T15:24:00.311Z,19.55
2022-10-14T15:26:34.756Z,19.00
2022-10-14T15:29:14.629Z,21.13
2022-10-14T15:31:44.240Z,21.02
2022-10-14T15:34:22.020Z,18.52
2022-10-14T15:36:51.236Z,20.30
2022-10-14T15:39:19.215Z,19.40
2022-10-14T15:41:48.716Z,20.08
2022-10-14T15:44:16.591Z,20.48
2022-10-14T15:47:03.287Z,23.10
2022-10-14T15:49:33.672Z,17.98
2022-10-14T15:52:01.542Z,16.75
2022-10-14T15:54:29.403Z,20.85
2022-10-14T15:56:58.953Z,20.33
2022-10-14T15:59:27.554Z,23.23
2022-10-14T16:01:55.740Z,21.45
2022-10-14T16:04:25.836Z,28.92
2022-10-14T16:06:55.094Z,24.33
2022-10-14T16:09:23.491Z,18.98
2022-10-14T16:11:57.190Z,29.83
2022-10-14T16:14:27.252Z,52.97
2022-10-14T16:16:55.640Z,41.65
2022-10-14T16:19:23.535Z,71.88
2022-10-14T16:21:51.411Z,37.08
2022-10-14T16:24:20.743Z,47.22
2022-10-14T16:26:49.726Z,42.70
2022-10-14T16:29:18.215Z,45.03
2022-10-14T16:31:49.655Z,36.83
2022-10-14T16:34:17.663Z,30.70
2022-10-14T16:36:45.497Z,53.63
2022-10-14T16:39:14.285Z,31.73
2022-10-14T16:41:42.254Z,55.78
2022-10-14T16:44:24.218Z,49.63
2022-10-14T16:47:12.218Z,53.85
2022-10-14T16:49:40.587Z,52.65
2022-10-14T16:52:09.222Z,43.28
2022-10-14T16:54:37.115Z,26.70
2022-10-14T16:57:06.002Z,26.52
2022-10-14T16:59:34.139Z,24.17
2022-10-14T17:02:03.994Z,26.23
2022-10-14T17:04:31.891Z,27.55
2022-10-14T17:07:06.929Z,26.60
2022-10-14T17:09:35.922Z,24.77
2022-10-14T17:12:08.054Z,25.77
2022-10-14T17:14:39.232Z,26.40
2022-10-14T17:17:08.845Z,24.08
2022-10-14T17:19:37.237Z,27.23
2022-10-14T17:22:05.225Z,25.23
2022-10-14T17:24:33.051Z,25.25
2022-10-14T17:27:04.426Z,27.75
2022-10-14T17:29:32.508Z,24.42
2022-10-14T17:32:00.362Z,25.05
2022-10-14T17:34:29.754Z,24.52
2022-10-14T17:37:00.600Z,24.88
2022-10-14T17:39:29.778Z,24.05
2022-10-14T17:41:58.331Z,24.20
2022-10-14T17:44:28.589Z,21.23
2022-10-14T17:46:56.841Z,22.10
2022-10-14T17:49:24.684Z,23.60
2022-10-14T17:51:53.908Z,23.23
2022-10-14T17:54:21.970Z,25.08
2022-10-14T17:56:49.845Z,24.52
2022-10-14T17:59:17.702Z,21.25
2022-10-14T18:04:33.674Z,17.73
2022-10-14T18:07:02.907Z,19.25
2022-10-14T18:09:30.833Z,20.75
2022-10-14T18:12:14.015Z,18.65
2022-10-14T18:17:12.127Z,23.27
2022-10-14T18:19:41.057Z,19.15
2022-10-14T18:22:12.053Z,25.10
2022-10-14T18:24:39.953Z,23.77
2022-10-14T18:27:08.031Z,20.77
2022-10-14T18:29:35.928Z,21.48
2022-10-14T18:32:03.932Z,21.42
2022-10-14T18:34:32.377Z,23.08
2022-10-14T18:37:00.182Z,18.27
2022-10-14T18:39:29.399Z,21.50
2022-10-14T18:41:57.393Z,22.83
2022-10-14T18:44:25.545Z,19.92
2022-10-14T18:46:53.564Z,22.02
2022-10-14T18:49:21.718Z,18.77
2022-10-14T18:51:49.768Z,23.05
2022-10-14T18:54:19.934Z,21.65
2022-10-14T18:56:49.238Z,19.70
2022-10-14T18:59:18.604Z,23.10
2022-10-14T19:01:47.548Z,22.25
2022-10-14T19:04:16.703Z,23.90
2022-10-14T19:06:48.751Z,21.70
2022-10-14T19:09:17.442Z,30.17
2022-10-14T19:11:47.838Z,28.88
2022-10-14T19:14:17.653Z,26.50
2022-10-14T19:16:47.418Z,27.90
2022-10-14T19:19:18.526Z,25.80
2022-10-14T19:21:48.719Z,29.27
2022-10-14T19:24:16.827Z,26.23
2022-10-14T19:26:46.232Z,27.70
2022-10-14T19:29:16.984Z,25.40
2022-10-14T19:31:45.407Z,29.90
2022-10-14T19:34:15.134Z,23.40
2022-10-14T19:36:43.911Z,29.23
2022-10-14T19:39:13.597Z,26.10
2022-10-14T19:41:44.835Z,27.35
2022-10-14T19:44:13.614Z,25.13
2022-10-14T19:46:43.611Z,25.40
2022-10-14T19:49:13.548Z,22.88
2022-10-14T19:51:41.503Z,25.60
2022-10-14T19:54:11.577Z,25.27
2022-10-14T19:56:39.588Z,24.05
2022-10-14T19:59:07.920Z,21.65
2022-10-14T20:01:36.399Z,23.08
2022-10-14T20:04:06.992Z,27.40
2022-10-14T20:06:36.564Z,23.88
2022-10-14T20:09:05.090Z,20.45
2022-10-14T20:11:33.157Z,19.63
2022-10-14T20:14:01.117Z,23.85
2022-10-14T20:16:29.242Z,31.80
2022-10-14T20:18:57.497Z,25.15
2022-10-14T20:21:29.907Z,21.45
2022-10-14T20:23:59.360Z,29.05
2022-10-14T20:26:27.552Z,24.25
2022-10-14T20:28:55.890Z,23.48
2022-10-14T20:31:25.272Z,25.10
2022-10-14T20:33:53.167Z,22.02
2022-10-14T20:36:22.033Z,24.58
2022-10-14T20:38:51.504Z,27.95
2022-10-14T20:41:22.007Z,22.00
2022-10-14T20:43:50.773Z,23.88
2022-10-14T20:46:18.989Z,22.48
2022-10-14T20:48:47.264Z,19.40
2022-10-14T20:51:17.791Z,20.95
2022-10-14T20:53:45.672Z,20.23
2022-10-14T20:56:15.733Z,24.08
2022-10-14T20:58:43.903Z,21.20
2022-10-14T21:01:13.793Z,23.33
2022-10-14T21:03:42.516Z,23.67
2022-10-14T21:06:12.226Z,21.85
2022-10-14T21:08:40.744Z,23.77
2022-10-14T21:11:13.910Z,23.77
2022-10-14T21:13:46.576Z,27.63
2022-10-14T21:16:16.055Z,18.80
2022-10-14T21:18:47.402Z,22.55
2022-10-14T21:21:16.762Z,22.05
2022-10-14T21:23:45.816Z,23.75
2022-10-14T21:26:13.645Z,24.27
2022-10-14T21:28:41.674Z,22.77
2022-10-14T21:31:14.797Z,26.60
2022-10-14T21:33:45.485Z,25.77
2022-10-14T21:36:14.866Z,22.23
2022-10-14T21:38:42.900Z,26.25
2022-10-14T21:41:11.228Z,24.60
2022-10-14T21:43:39.642Z,20.33
2022-10-14T21:46:09.309Z,24.20
2022-10-14T21:48:38.531Z,24.95
2022-10-14T21:51:08.275Z,21.77
2022-10-14T21:53:36.401Z,23.30
2022-10-14T21:56:04.891Z,26.58
2022-10-14T21:58:33.211Z,23.35
2022-10-14T22:01:02.143Z,22.30
2022-10-14T22:03:30.112Z,21.30
2022-10-14T22:06:00.252Z,18.92
2022-10-14T22:08:30.981Z,23.50
2022-10-14T22:10:58.948Z,20.85
2022-10-14T22:13:27.332Z,19.25
2022-10-14T22:15:55.707Z,19.20
2022-10-14T22:18:23.962Z,21.35
2022-10-14T22:20:52.724Z,17.80
2022-10-14T22:23:21.884Z,19.08
2022-10-14T22:25:49.742Z,22.48
2022-10-14T22:28:17.629Z,19.55
2022-10-14T22:30:45.609Z,22.08
2022-10-14T22:33:13.433Z,20.40
2022-10-14T22:35:41.284Z,18.02
2022-10-14T22:38:09.159Z,20.77
2022-10-14T22:40:38.447Z,20.33
2022-10-14T22:43:06.281Z,17.85
2022-10-14T22:45:34.152Z,17.70
2022-10-14T22:48:01.999Z,17.73
2022-10-14T22:50:29.854Z,18.13
2022-10-14T22:52:57.729Z,18.75
2022-10-14T22:55:25.578Z,26.15
2022-10-14T22:57:54.764Z,13.70
2022-10-14T23:00:22.732Z,14.00
2022-10-14T23:02:50.626Z,13.30
2022-10-14T23:05:18.507Z,17.27
2022-10-14T23:07:46.506Z,13.82
2022-10-14T23:10:14.506Z,17.60
2022-10-14T23:12:42.362Z,15.02
2022-10-14T23:15:11.981Z,17.25
2022-10-14T23:17:39.859Z,15.70
2022-10-14T23:20:09.058Z,13.82
2022-10-14T23:22:36.944Z,15.73
2022-10-14T23:25:05.245Z,11.88
2022-10-14T23:27:35.618Z,12.35
2022-10-14T23:30:04.824Z,13.55
2022-10-14T23:32:34.033Z,14.05
2022-10-14T23:35:01.845Z,11.55
2022-10-14T23:37:30.464Z,13.13
2022-10-14T23:39:58.495Z,13.25
2022-10-14T23:42:26.338Z,10.80
2022-10-14T23:44:54.230Z,11.48
2022-10-14T23:47:22.278Z,11.32
2022-10-14T23:49:51.714Z,12.05
2022-10-14T23:52:19.517Z,10.23
2022-10-14T23:54:47.831Z,10.95
2022-10-14T23:57:15.750Z,12.82
2022-10-14T23:59:43.647Z,10.88
